createdAt,value
2019-05-17T00:00:12.593Z,43.6
2019-05-17T00:01:17.128Z,43.5
2019-05-17T00:02:18.991Z,45.2
2019-05-17T00:03:20.850Z,45.5
2019-05-17T00:04:22.714Z,44.4
2019-05-17T00:05:26.997Z,43.8
2019-05-17T00:06:28.858Z,44.6
2019-05-17T00:07:30.768Z,44.2
2019-05-17T00:08:38.659Z,44.2
2019-05-17T00:09:40.497Z,43.9
2019-05-17T00:10:42.099Z,43.9
2019-05-17T00:11:43.682Z,43.3
2019-05-17T00:12:48.022Z,41
2019-05-17T00:13:49.611Z,41.3
2019-05-17T00:14:51.480Z,41.6
2019-05-17T00:15:53.341Z,42.9
2019-05-17T00:16:58.360Z,42.4
2019-05-17T00:18:00.229Z,42
2019-05-17T00:19:02.089Z,42.3
2019-05-17T00:20:06.190Z,42.6
2019-05-17T00:21:08.762Z,41.7
2019-05-17T00:22:10.627Z,42.5
2019-05-17T00:23:12.490Z,41.4
2019-05-17T00:24:14.350Z,39.4
2019-05-17T00:25:17.698Z,40.7
2019-05-17T00:26:19.564Z,39.8
2019-05-17T00:27:21.429Z,39.3
2019-05-17T00:28:23.292Z,41.4
2019-05-17T00:29:26.925Z,39.9
2019-05-17T00:30:28.788Z,39.4
2019-05-17T00:31:30.650Z,40.9
2019-05-17T00:32:31.960Z,39.8
2019-05-17T00:33:33.541Z,39.4
2019-05-17T00:34:37.494Z,37.3
2019-05-17T00:35:39.515Z,38.4
2019-05-17T00:36:41.388Z,38
2019-05-17T00:37:43.250Z,38.3
2019-05-17T00:38:52.229Z,37.8
2019-05-17T00:39:56.496Z,38.1
2019-05-17T00:40:58.212Z,37.2
2019-05-17T00:42:00.074Z,38.7
2019-05-17T00:43:01.654Z,38.6
2019-05-17T00:44:03.515Z,38.6
2019-05-17T00:45:07.880Z,38.9
2019-05-17T00:46:09.736Z,37.7
2019-05-17T00:47:11.599Z,36.9
2019-05-17T00:48:13.461Z,37.8
2019-05-17T00:49:17.499Z,36.7
2019-05-17T00:50:19.361Z,36.7
2019-05-17T00:51:21.224Z,36.4
2019-05-17T00:52:23.085Z,37.1
2019-05-17T00:53:27.405Z,35.6
2019-05-17T00:54:29.279Z,37
2019-05-17T00:55:31.136Z,35.7
2019-05-17T00:56:32.735Z,35.9
2019-05-17T00:57:36.656Z,36.6
2019-05-17T00:58:38.679Z,36.2
2019-05-17T00:59:40.551Z,35.4
2019-05-17T01:00:42.141Z,35.2
2019-05-17T01:01:44.000Z,36.3
2019-05-17T01:02:48.030Z,37.3
2019-05-17T01:03:49.893Z,37.2
2019-05-17T01:04:51.755Z,36.8
2019-05-17T01:05:53.616Z,36.8
2019-05-17T01:06:57.317Z,36.8
2019-05-17T01:07:59.178Z,35.5
2019-05-17T01:09:04.959Z,37.1
2019-05-17T01:10:09.173Z,35
2019-05-17T01:11:11.036Z,36.1
2019-05-17T01:12:12.900Z,34.8
2019-05-17T01:13:17.114Z,34.7
2019-05-17T01:14:18.502Z,35.1
2019-05-17T01:15:20.370Z,33.7
2019-05-17T01:16:22.232Z,33.5
2019-05-17T01:17:24.091Z,33.6
2019-05-17T01:18:27.989Z,33.8
2019-05-17T01:19:29.887Z,33.9
2019-05-17T01:20:31.480Z,35.9
2019-05-17T01:21:33.066Z,35.7
2019-05-17T01:22:37.154Z,35.8
2019-05-17T01:23:39.013Z,35
2019-05-17T01:24:40.887Z,36.2
2019-05-17T01:25:42.751Z,34.8
2019-05-17T01:26:46.706Z,35.9
2019-05-17T01:27:48.684Z,35.7
2019-05-17T01:28:50.547Z,35.4
2019-05-17T01:29:51.870Z,35.2
2019-05-17T01:30:53.466Z,35
2019-05-17T01:31:57.617Z,34.9
2019-05-17T01:32:59.474Z,33.7
2019-05-17T01:34:01.336Z,33.4
2019-05-17T01:35:03.199Z,34.4
2019-05-17T01:36:07.429Z,34.9
2019-05-17T01:37:09.291Z,34.2
2019-05-17T01:38:10.877Z,34.5
2019-05-17T01:39:21.921Z,35.1
2019-05-17T01:40:23.789Z,35.7
2019-05-17T01:41:27.841Z,35.2
2019-05-17T01:42:29.698Z,35.4
2019-05-17T01:43:31.282Z,35
2019-05-17T01:44:33.144Z,35.1
2019-05-17T01:45:37.459Z,35
2019-05-17T01:46:39.322Z,36.2
2019-05-17T01:47:41.186Z,35.3
2019-05-17T01:48:43.048Z,34.7
2019-05-17T01:49:47.472Z,34.9
2019-05-17T01:50:49.336Z,33.8
2019-05-17T01:51:51.198Z,34.2
2019-05-17T01:52:53.062Z,34.4
2019-05-17T01:53:57.187Z,33.4
2019-05-17T01:54:59.156Z,35
2019-05-17T01:56:01.019Z,33.6
2019-05-17T01:57:02.886Z,34
2019-05-17T01:58:06.984Z,34
2019-05-17T01:59:09.110Z,34.2
2019-05-17T02:00:10.978Z,34.3
2019-05-17T02:01:12.838Z,35.1
2019-05-17T02:02:16.897Z,34.6
2019-05-17T02:03:18.219Z,35
2019-05-17T02:04:19.519Z,36.8
2019-05-17T02:05:21.381Z,34.5
2019-05-17T02:06:23.263Z,35.3
2019-05-17T02:07:27.669Z,35
2019-05-17T02:08:29.254Z,34.5
2019-05-17T02:09:42.257Z,35.4
2019-05-17T02:10:44.113Z,34.9
2019-05-17T02:11:47.973Z,35.4
2019-05-17T02:12:50.190Z,35.3
2019-05-17T02:13:52.052Z,34.9
2019-05-17T02:14:53.915Z,35.5
2019-05-17T02:15:57.468Z,35.6
2019-05-17T02:16:59.325Z,34.1
2019-05-17T02:18:01.189Z,34.5
2019-05-17T02:19:03.055Z,35.7
2019-05-17T02:20:07.343Z,34.8
2019-05-17T02:21:09.205Z,36.2
2019-05-17T02:22:11.068Z,36.3
2019-05-17T02:23:12.930Z,35.3
2019-05-17T02:24:17.384Z,35.2
2019-05-17T02:25:19.246Z,35.7
2019-05-17T02:26:21.107Z,35.1
2019-05-17T02:27:35.551Z,35.7
2019-05-17T02:28:45.854Z,34.5
2019-05-17T02:29:47.423Z,34.3
2019-05-17T02:30:52.868Z,34.6
2019-05-17T02:31:54.857Z,36
2019-05-17T02:32:56.722Z,34.7
2019-05-17T02:33:58.583Z,35.4
2019-05-17T02:35:04.260Z,33.7
2019-05-17T02:36:06.118Z,33.7
2019-05-17T02:37:08.790Z,35.4
2019-05-17T02:38:14.123Z,34.2
2019-05-17T02:39:15.697Z,34.3
2019-05-17T02:40:17.291Z,35.1
2019-05-17T02:41:22.484Z,34.1
2019-05-17T02:42:24.483Z,35.3
2019-05-17T02:43:26.339Z,34.3
2019-05-17T02:44:28.200Z,34.6
2019-05-17T02:45:33.406Z,33.6
2019-05-17T02:46:35.302Z,33.8
2019-05-17T02:47:37.160Z,34.9
2019-05-17T02:48:38.755Z,33.4
2019-05-17T02:49:43.367Z,33.4
2019-05-17T02:50:48.823Z,33.3
2019-05-17T02:51:54.543Z,34.5
2019-05-17T02:52:56.121Z,33.9
2019-05-17T02:53:57.989Z,35.2
2019-05-17T02:55:03.577Z,35.3
2019-05-17T02:56:05.766Z,34.2
2019-05-17T02:57:07.627Z,35.8
2019-05-17T02:58:09.219Z,33.5
2019-05-17T02:59:14.754Z,33.7
2019-05-17T03:00:16.109Z,34
2019-05-17T03:01:17.698Z,34.1
2019-05-17T03:02:26.895Z,34.3
2019-05-17T03:03:32.097Z,34.1
2019-05-17T03:04:34.182Z,33.7
2019-05-17T03:05:36.045Z,33.6
2019-05-17T03:06:37.908Z,33.7
2019-05-17T03:07:43.334Z,34.3
2019-05-17T03:08:45.829Z,32
2019-05-17T03:09:47.717Z,33.1
2019-05-17T03:10:49.591Z,33.1
2019-05-17T03:11:58.165Z,32.8
2019-05-17T03:13:03.620Z,33.3
2019-05-17T03:14:05.965Z,33.2
2019-05-17T03:15:07.828Z,32.7
2019-05-17T03:16:09.694Z,33.5
2019-05-17T03:17:14.962Z,34.1
2019-05-17T03:18:16.821Z,32.2
2019-05-17T03:19:18.682Z,32.9
2019-05-17T03:20:24.148Z,33.1
2019-05-17T03:21:26.012Z,32.3
2019-05-17T03:22:27.873Z,32.5
2019-05-17T03:23:33.276Z,32.4
2019-05-17T03:24:35.137Z,34.1
2019-05-17T03:25:37.004Z,33.1
2019-05-17T03:26:38.860Z,32.5
2019-05-17T03:27:44.126Z,33.5
2019-05-17T03:28:45.998Z,33.5
2019-05-17T03:29:47.860Z,32.9
2019-05-17T03:30:55.528Z,32.7
2019-05-17T03:32:15.606Z,33.5
2019-05-17T03:33:19.406Z,31.6
2019-05-17T03:34:28.393Z,32.3
2019-05-17T03:35:36.495Z,31.9
2019-05-17T03:36:46.119Z,33.3
2019-05-17T03:37:48.928Z,34
2019-05-17T03:38:54.561Z,33.6
2019-05-17T03:39:55.853Z,33.3
2019-05-17T03:41:28.853Z,33
2019-05-17T03:42:34.594Z,31.8
2019-05-17T03:43:44.543Z,32.3
2019-05-17T03:44:46.162Z,31.9
2019-05-17T03:45:48.021Z,31
2019-05-17T03:46:52.927Z,31.4
2019-05-17T03:47:55.002Z,31.1
2019-05-17T03:48:56.864Z,32.3
2019-05-17T03:49:58.777Z,30.9
2019-05-17T03:51:04.397Z,31
2019-05-17T03:52:05.983Z,30
2019-05-17T03:53:07.851Z,31
2019-05-17T03:54:13.474Z,31.1
2019-05-17T03:55:15.309Z,29.7
2019-05-17T03:56:17.169Z,29.6
2019-05-17T03:57:19.037Z,30.4
2019-05-17T03:58:24.390Z,30.3
2019-05-17T03:59:26.249Z,30.4
2019-05-17T04:00:28.111Z,29.5
2019-05-17T04:01:33.218Z,30.5
2019-05-17T04:02:35.075Z,29.5
2019-05-17T04:03:36.940Z,29.3
2019-05-17T04:04:38.529Z,30.2
2019-05-17T04:05:43.455Z,29.2
2019-05-17T04:06:45.027Z,29.2
2019-05-17T04:07:46.889Z,30.2
2019-05-17T04:08:48.749Z,29.3
2019-05-17T04:09:54.130Z,29.4
2019-05-17T04:10:55.985Z,29.5
2019-05-17T04:11:57.848Z,29.8
2019-05-17T04:12:59.720Z,29.3
2019-05-17T04:14:05.343Z,29.8
2019-05-17T04:15:07.201Z,30.1
2019-05-17T04:16:14.482Z,28.9
2019-05-17T04:17:16.106Z,28.6
2019-05-17T04:18:17.406Z,28.4
2019-05-17T04:19:19.270Z,29.2
2019-05-17T04:20:24.307Z,28.1
2019-05-17T04:21:26.162Z,28
2019-05-17T04:22:28.026Z,28.1
2019-05-17T04:23:30.457Z,27.4
2019-05-17T04:24:35.624Z,26.4
2019-05-17T04:25:39.650Z,27.8
2019-05-17T04:26:45.135Z,27.9
2019-05-17T04:27:47.039Z,28.1
2019-05-17T04:28:48.928Z,27.3
2019-05-17T04:29:54.188Z,27
2019-05-17T04:30:56.047Z,26.8
2019-05-17T04:31:57.345Z,26.8
2019-05-17T04:32:59.206Z,27.4
2019-05-17T04:34:04.728Z,27.6
2019-05-17T04:35:06.583Z,27.5
2019-05-17T04:36:08.444Z,28
2019-05-17T04:37:12.861Z,28.6
2019-05-17T04:38:14.883Z,27.7
2019-05-17T04:39:16.477Z,28
2019-05-17T04:40:18.334Z,27.9
2019-05-17T04:41:54.617Z,27.7
2019-05-17T04:42:56.617Z,27.8
2019-05-17T04:43:58.477Z,28.9
2019-05-17T04:45:04.931Z,27.3
2019-05-17T04:46:06.523Z,27.8
2019-05-17T04:47:08.380Z,26.9
2019-05-17T04:48:13.623Z,27.6
2019-05-17T04:49:15.478Z,28.6
2019-05-17T04:50:16.795Z,28.3
2019-05-17T04:51:18.397Z,27.1
2019-05-17T04:52:23.695Z,28.2
2019-05-17T04:53:25.552Z,28.8
2019-05-17T04:54:27.417Z,28
2019-05-17T04:55:29.280Z,28.3
2019-05-17T04:56:34.325Z,27.5
2019-05-17T04:57:36.186Z,27.6
2019-05-17T04:58:38.045Z,27.3
2019-05-17T04:59:43.138Z,28.5
2019-05-17T05:00:44.828Z,27.5
2019-05-17T05:01:46.679Z,26.8
2019-05-17T05:02:48.550Z,27.7
2019-05-17T05:03:53.399Z,27.2
2019-05-17T05:04:55.260Z,28
2019-05-17T05:05:57.121Z,27.6
2019-05-17T05:06:58.995Z,26.7
2019-05-17T05:08:04.154Z,27.8
2019-05-17T05:09:06.008Z,27
2019-05-17T05:10:07.868Z,26.4
2019-05-17T05:11:12.435Z,26.1
2019-05-17T05:12:14.532Z,26.5
2019-05-17T05:13:16.418Z,26.3
2019-05-17T05:14:18.279Z,26.7
2019-05-17T05:15:23.049Z,26.6
2019-05-17T05:16:24.911Z,26.5
2019-05-17T05:17:26.786Z,27.4
2019-05-17T05:18:28.368Z,26.8
2019-05-17T05:19:32.709Z,27
2019-05-17T05:20:34.728Z,28.1
2019-05-17T05:21:36.589Z,27
2019-05-17T05:22:38.443Z,28.5
2019-05-17T05:23:42.260Z,29.4
2019-05-17T05:24:44.262Z,27.7
2019-05-17T05:25:46.123Z,28.1
2019-05-17T05:26:47.993Z,27.9
2019-05-17T05:27:52.124Z,27.4
2019-05-17T05:28:54.050Z,28.9
2019-05-17T05:29:55.909Z,28.5
2019-05-17T05:30:57.495Z,27.9
2019-05-17T05:31:59.368Z,28.1
2019-05-17T05:33:03.983Z,27.4
2019-05-17T05:34:05.885Z,25.8
2019-05-17T16:04:55.474Z,15.6
2019-05-17T16:05:57.067Z,16.2
2019-05-17T16:06:58.939Z,16.7
2019-05-17T16:08:00.532Z,16.8
2019-05-17T16:09:02.697Z,16.9
2019-05-17T16:10:04.574Z,16.9
2019-05-17T16:11:06.452Z,16.5
2019-05-17T16:12:08.007Z,17.5
2019-05-17T16:13:09.600Z,15.5
2019-05-17T16:14:11.467Z,16.9
2019-05-17T16:15:13.338Z,16.5
2019-05-17T16:16:15.206Z,16.4
2019-05-17T16:17:17.078Z,16.2
2019-05-17T16:18:18.947Z,16.8
2019-05-17T16:19:20.589Z,16.3
2019-05-17T16:20:22.458Z,15.9
2019-05-17T16:21:24.338Z,16.5
2019-05-17T16:22:25.935Z,15.8
2019-05-17T16:23:27.810Z,16.3
2019-05-17T16:24:29.684Z,16.6
2019-05-17T16:25:34.616Z,16.5
2019-05-17T16:26:36.206Z,17
2019-05-17T16:27:37.798Z,17
2019-05-17T16:28:39.403Z,17.9
2019-05-17T16:29:41.028Z,16.7
2019-05-17T16:30:42.619Z,16.4
2019-05-17T16:31:44.489Z,16.5
2019-05-17T16:32:46.424Z,16.4
2019-05-17T16:33:51.820Z,16.8
2019-05-17T16:34:53.688Z,16.9
2019-05-17T16:35:55.561Z,16.1
2019-05-17T16:36:57.442Z,15.6
2019-05-17T16:37:59.033Z,16.7
2019-05-17T16:39:00.901Z,16
2019-05-17T16:40:02.775Z,15.8
2019-05-17T16:41:04.415Z,15.8
2019-05-17T16:42:06.341Z,15.6
2019-05-17T16:43:19.346Z,15.7
2019-05-17T16:44:21.227Z,15.5
2019-05-17T16:45:23.101Z,16.2
2019-05-17T16:46:24.979Z,15.7
2019-05-17T16:47:26.583Z,15.5
2019-05-17T16:48:28.455Z,15.9
2019-05-17T16:49:30.325Z,15.3
2019-05-17T16:50:32.193Z,15
2019-05-17T16:51:34.163Z,15
2019-05-17T16:52:36.075Z,15.3
2019-05-17T16:53:37.677Z,15.6
2019-05-17T16:54:39.569Z,15.6
2019-05-17T16:55:41.624Z,15.5
2019-05-17T16:56:43.495Z,15.3
2019-05-17T16:57:45.369Z,15.4
2019-05-17T16:58:47.246Z,15.2
2019-05-17T16:59:49.115Z,15.5
2019-05-17T17:00:50.709Z,15.1
2019-05-17T17:01:52.576Z,15.7
2019-05-17T17:02:54.170Z,15.9
2019-05-17T17:03:55.757Z,14.6
2019-05-17T17:04:57.629Z,15.3
2019-05-17T17:05:58.959Z,15.8
2019-05-17T17:07:00.263Z,15.3
2019-05-17T17:08:02.144Z,14.8
2019-05-17T17:09:03.449Z,15.2
2019-05-17T17:10:05.332Z,15.8
2019-05-17T17:11:06.923Z,15.2
2019-05-17T17:12:08.793Z,14.7
2019-05-17T17:13:10.663Z,14.6
2019-05-17T17:14:12.531Z,15.2
2019-05-17T17:15:14.404Z,14.9
2019-05-17T17:16:16.281Z,15.4
2019-05-17T17:17:18.156Z,14.3
2019-05-17T17:18:20.032Z,14.5
2019-05-17T17:19:21.082Z,14.2
2019-05-17T17:20:22.382Z,14.2
2019-05-17T17:21:24.072Z,14
2019-05-17T17:22:25.939Z,14.2
2019-05-17T17:23:27.806Z,13.9
2019-05-17T17:24:29.682Z,13.9
2019-05-17T17:25:31.559Z,13.5
2019-05-17T17:26:33.438Z,13.8
2019-05-17T17:27:35.318Z,14.1
2019-05-17T17:28:36.920Z,14.2
2019-05-17T17:29:38.790Z,14
2019-05-17T17:30:40.121Z,14.2
2019-05-17T17:31:41.148Z,14.5
2019-05-17T17:32:43.019Z,14.5
2019-05-17T17:33:44.888Z,14
2019-05-17T17:34:46.763Z,13.7
2019-05-17T17:35:48.629Z,14
2019-05-17T17:36:50.497Z,14
2019-05-17T17:37:52.087Z,14.4
2019-05-17T17:38:53.961Z,14.6
2019-05-17T17:39:55.844Z,13.7
2019-05-17T17:40:57.713Z,14.6
2019-05-17T17:41:59.056Z,14.3
2019-05-17T17:43:00.373Z,14.4
2019-05-17T17:44:02.258Z,13.8
2019-05-17T17:45:04.109Z,15
2019-05-17T17:46:05.983Z,14.8
2019-05-17T17:47:07.570Z,14.9
2019-05-17T17:48:09.439Z,14.9
2019-05-17T17:49:11.311Z,15
2019-05-17T17:50:13.176Z,14.2
2019-05-17T17:51:15.063Z,14.4
2019-05-17T17:52:16.693Z,14.3
2019-05-17T17:53:18.313Z,14.6
2019-05-17T17:54:19.908Z,14.7
2019-05-17T17:55:21.819Z,14.8
2019-05-17T17:56:23.715Z,14.7
2019-05-17T17:57:25.669Z,14.1
2019-05-17T17:58:27.537Z,14.8
2019-05-17T17:59:29.408Z,15.1
2019-05-17T18:00:31.310Z,15.4
2019-05-17T18:01:33.159Z,14.4
2019-05-17T18:02:35.034Z,14.7
2019-05-17T18:03:36.374Z,15.1
2019-05-17T18:04:37.973Z,14.6
2019-05-17T18:05:39.845Z,14.9
2019-05-17T18:06:41.716Z,15.2
2019-05-17T18:07:43.586Z,13.9
2019-05-17T18:08:45.517Z,14.5
2019-05-17T18:09:47.114Z,13.9
2019-05-17T18:10:48.995Z,14
2019-05-17T18:11:50.581Z,14
2019-05-17T18:12:52.451Z,13.7
2019-05-17T18:13:54.124Z,14.1
2019-05-17T18:14:56.036Z,14
2019-05-17T18:15:57.631Z,13.9
2019-05-17T18:16:59.503Z,13.5
2019-05-17T18:18:01.373Z,13.6
2019-05-17T18:19:02.965Z,13.1
2019-05-17T18:20:04.835Z,13
2019-05-17T18:21:06.707Z,13.5
2019-05-17T18:22:08.323Z,13.1
2019-05-17T18:23:10.206Z,12.9
2019-05-17T18:24:12.080Z,12.7
2019-05-17T18:25:13.707Z,12.5
2019-05-17T18:26:15.604Z,12.3
2019-05-17T18:27:17.215Z,11.9
2019-05-17T18:28:19.088Z,12.7
2019-05-17T18:29:20.676Z,12.1
2019-05-17T18:30:22.554Z,12.3
2019-05-17T18:31:24.427Z,12.2
2019-05-17T18:32:26.297Z,12.4
2019-05-17T18:33:28.173Z,12.3
2019-05-17T18:34:29.782Z,12.1
2019-05-17T18:35:31.653Z,11.5
2019-05-17T18:36:33.540Z,12.2
2019-05-17T18:37:35.168Z,11.9
2019-05-17T18:38:36.762Z,12.5
2019-05-17T18:39:38.687Z,11.8
2019-05-17T18:40:40.565Z,11.7
2019-05-17T18:41:42.440Z,11.9
2019-05-17T18:42:44.324Z,12.7
2019-05-17T18:43:46.191Z,12.5
2019-05-17T18:44:48.062Z,12.5
2019-05-17T18:45:49.806Z,12.8
2019-05-17T18:46:51.674Z,13.3
2019-05-17T18:47:53.617Z,12.9
2019-05-17T18:48:55.524Z,13.3
2019-05-17T18:49:57.396Z,13.1
2019-05-17T18:50:59.276Z,13.6
2019-05-17T18:52:01.144Z,13.1
2019-05-17T18:53:05.977Z,13.8
2019-05-17T18:54:17.652Z,13.3
2019-05-17T18:55:19.245Z,13.9
2019-05-17T18:56:21.117Z,13.7
2019-05-17T18:57:22.988Z,13.9
2019-05-17T18:58:24.862Z,13.5
2019-05-17T18:59:26.738Z,14.6
2019-05-17T19:00:28.610Z,14.8
2019-05-17T19:01:30.516Z,14.6
2019-05-17T19:02:32.391Z,14.4
2019-05-17T19:03:34.258Z,14.7
2019-05-17T19:04:35.853Z,14.8
2019-05-17T19:05:37.455Z,14.9
2019-05-17T19:06:39.321Z,14.3
2019-05-17T19:07:40.900Z,14.3
2019-05-17T19:08:42.763Z,13.8
2019-05-17T19:09:44.673Z,15
2019-05-17T19:10:46.570Z,14.6
2019-05-17T19:11:48.158Z,13.7
2019-05-17T19:12:49.751Z,14.4
2019-05-17T19:13:51.620Z,14.2
2019-05-17T19:14:53.492Z,14
2019-05-17T19:15:55.359Z,14.3
2019-05-17T19:16:57.229Z,14.5
2019-05-17T19:17:59.103Z,14.5
2019-05-17T19:19:00.968Z,14.1
2019-05-17T19:20:02.839Z,14.3
2019-05-17T19:21:04.702Z,14.4
2019-05-17T19:22:06.569Z,14
2019-05-17T19:23:08.440Z,14.8
2019-05-17T19:24:10.307Z,14.5
2019-05-17T19:25:12.173Z,14.3
2019-05-17T19:26:14.041Z,14.5
2019-05-17T19:27:15.909Z,15.5
2019-05-17T19:28:17.784Z,14.9
2019-05-17T19:29:19.371Z,15.8
2019-05-17T19:30:21.239Z,15.6
2019-05-17T19:31:23.258Z,15.9
2019-05-17T19:32:25.127Z,14.9
2019-05-17T19:33:27.023Z,15.3
2019-05-17T19:34:28.891Z,15.4
2019-05-17T19:35:30.801Z,16.9
2019-05-17T19:36:32.667Z,17.1
2019-05-17T19:37:34.533Z,17.9
2019-05-17T19:38:36.403Z,18.5
2019-05-17T19:39:38.270Z,17.2
2019-05-17T19:40:40.141Z,18.8
2019-05-17T19:41:42.012Z,18.4
2019-05-17T19:42:43.878Z,17.6
2019-05-17T19:43:45.746Z,18.4
2019-05-17T19:44:59.946Z,17.1
2019-05-17T19:46:01.812Z,17
2019-05-17T19:47:03.678Z,16.7
2019-05-17T19:48:05.550Z,17.2
2019-05-17T19:49:06.853Z,15.6
2019-05-17T19:50:08.731Z,16.2
2019-05-17T19:51:10.600Z,15.2
2019-05-17T19:52:12.475Z,15.5
2019-05-17T19:53:14.336Z,15.5
2019-05-17T19:54:15.917Z,15.1
2019-05-17T19:55:17.785Z,15.9
2019-05-17T19:56:19.656Z,16.3
2019-05-17T19:57:21.563Z,15.9
2019-05-17T19:58:23.453Z,15.5
2019-05-17T19:59:25.337Z,15.6
2019-05-17T20:00:27.189Z,16.1
2019-05-17T20:01:29.058Z,16.4
2019-05-17T20:02:30.924Z,15.8
2019-05-17T20:03:32.512Z,16.1
2019-05-17T20:04:34.089Z,16.7
2019-05-17T20:05:35.681Z,16.1
2019-05-17T20:06:37.274Z,16.3
2019-05-17T20:07:40.395Z,17
2019-05-17T20:08:41.996Z,17.4
2019-05-17T20:09:43.597Z,16.6
2019-05-17T20:10:45.183Z,17.3
2019-05-17T20:11:47.048Z,17.4
2019-05-17T20:12:48.938Z,17
2019-05-17T20:13:50.809Z,17.3
2019-05-17T20:14:52.674Z,17.4
2019-05-17T20:15:54.556Z,18
2019-05-17T20:16:56.423Z,17.3
2019-05-17T20:17:58.290Z,17.7
2019-05-17T20:19:00.158Z,17.7
2019-05-17T20:20:02.026Z,18.6
2019-05-17T20:21:03.891Z,18.8
2019-05-17T20:22:05.759Z,19.5
2019-05-17T20:23:07.336Z,18.8
2019-05-17T20:24:09.203Z,18.9
2019-05-17T20:25:10.791Z,20
2019-05-17T20:26:12.657Z,19.1
2019-05-17T20:27:14.530Z,19.3
2019-05-17T20:28:16.399Z,19.5
2019-05-17T20:29:17.990Z,19.7
2019-05-17T20:30:19.585Z,20.2
2019-05-17T20:31:21.455Z,20.1
2019-05-17T20:32:23.041Z,18.7
2019-05-17T20:33:24.907Z,20
2019-05-17T20:34:26.781Z,19.7
2019-05-17T20:35:28.648Z,19.6
2019-05-17T20:36:30.243Z,19.8
2019-05-17T20:37:31.822Z,19.4
2019-05-17T20:38:33.686Z,19.8
2019-05-17T20:39:35.273Z,19.8
2019-05-17T20:40:36.864Z,20.1
2019-05-17T20:41:38.239Z,21.1
2019-05-17T20:42:39.555Z,19.1
2019-05-17T20:43:41.170Z,20.9
2019-05-17T20:44:43.037Z,19.7
2019-05-17T20:45:44.903Z,20.4
2019-05-17T20:46:46.770Z,20
2019-05-17T20:47:48.361Z,20.7
2019-05-17T20:48:50.231Z,20.3
2019-05-17T20:49:52.095Z,20.2
2019-05-17T20:50:54.017Z,20.2
2019-05-17T20:51:55.859Z,20.4
2019-05-17T20:52:57.486Z,20.1
2019-05-17T20:53:59.381Z,20.6
2019-05-17T20:55:01.295Z,20.5
2019-05-17T20:56:03.531Z,20.8
2019-05-17T20:57:05.400Z,21.3
2019-05-17T20:58:07.272Z,20.3
2019-05-17T20:59:09.151Z,20.6
2019-05-17T21:00:11.023Z,21.1
2019-05-17T21:01:12.889Z,20.4
2019-05-17T21:02:14.765Z,20.9
2019-05-17T21:03:16.643Z,21.3
2019-05-17T21:04:18.234Z,19.8
2019-05-17T21:05:20.136Z,20.5
2019-05-17T21:06:21.761Z,20
2019-05-17T21:07:23.626Z,20.5
2019-05-17T21:08:27.748Z,21
2019-05-17T21:09:29.619Z,20.4
2019-05-17T21:10:31.494Z,20.3
2019-05-17T21:11:33.357Z,20.8
2019-05-17T21:12:35.232Z,20.5
2019-05-17T21:13:37.099Z,19.8
2019-05-17T21:14:38.711Z,20.3
2019-05-17T21:15:48.839Z,20.1
2019-05-17T21:16:50.705Z,20.7
2019-05-17T21:17:52.594Z,20.8
2019-05-17T21:18:54.457Z,20.8
2019-05-17T21:19:56.331Z,20.7
2019-05-17T21:20:58.200Z,20.9
2019-05-17T21:22:00.070Z,20.5
2019-05-17T21:23:01.661Z,20.9
2019-05-17T21:24:03.247Z,21.8
2019-05-17T21:25:05.113Z,21.1
2019-05-17T21:26:06.983Z,21.2
2019-05-17T21:27:08.857Z,21.4
2019-05-17T21:28:10.731Z,21.2
2019-05-17T21:29:12.601Z,21
2019-05-17T21:30:14.468Z,20.3
2019-05-17T21:31:16.061Z,20.5
2019-05-17T21:32:17.670Z,20.3
2019-05-17T21:33:19.524Z,21.1
2019-05-17T21:34:21.395Z,20.9
2019-05-17T21:35:23.266Z,21.1
2019-05-17T21:36:25.134Z,21.2
2019-05-17T21:37:27.005Z,21.5
2019-05-17T21:38:28.874Z,20.8
2019-05-17T21:39:30.744Z,21.4
2019-05-17T21:40:32.617Z,20.1
2019-05-17T21:41:34.206Z,21.6
2019-05-17T21:42:36.075Z,20.6
2019-05-17T21:43:37.946Z,21.8
2019-05-17T21:44:39.823Z,21.4
2019-05-17T21:45:41.729Z,22
2019-05-17T21:46:43.600Z,22.2
2019-05-17T21:47:44.938Z,22.4
2019-05-17T21:48:46.262Z,21
2019-05-17T21:49:48.133Z,21.4
2019-05-17T21:50:49.729Z,22
2019-05-17T21:51:51.604Z,21.8
2019-05-17T21:52:53.481Z,22.5
2019-05-17T21:53:55.354Z,22.3
2019-05-17T21:54:57.224Z,21.7
2019-05-17T21:55:59.104Z,22.4
2019-05-17T21:57:00.976Z,22
2019-05-17T21:58:02.855Z,22.7
2019-05-17T21:59:04.722Z,22.3
2019-05-17T22:00:06.594Z,21.6
2019-05-17T22:01:08.464Z,22.5
2019-05-17T22:02:10.333Z,22.5
2019-05-17T22:03:12.205Z,21.8
2019-05-17T22:04:14.080Z,22
2019-05-17T22:05:15.709Z,21.9
2019-05-17T22:06:17.587Z,22.5
2019-05-17T22:07:19.181Z,22.2
2019-05-17T22:08:21.054Z,22
2019-05-17T22:09:22.384Z,22.6
2019-05-17T22:10:23.731Z,22.7
2019-05-17T22:11:25.601Z,22.8
2019-05-17T22:12:27.472Z,22.5
2019-05-17T22:13:29.343Z,21.7
2019-05-17T22:14:31.229Z,22.9
2019-05-17T22:15:33.102Z,22
2019-05-17T22:16:34.972Z,22.9
2019-05-17T22:17:36.848Z,23.2
2019-05-17T22:18:38.719Z,22.8
2019-05-17T22:19:40.596Z,22.9
2019-05-17T22:20:41.927Z,24.5
2019-05-17T22:21:43.238Z,23.7
2019-05-17T22:22:45.110Z,23.8
2019-05-17T22:23:46.986Z,23.3
2019-05-17T22:24:48.859Z,23.6
2019-05-17T22:25:50.734Z,23
2019-05-17T22:26:52.612Z,23.8
2019-05-17T22:27:54.482Z,23.5
2019-05-17T22:28:56.354Z,23.6
2019-05-17T22:29:58.226Z,23.4
2019-05-17T22:30:59.819Z,23.3
2019-05-17T22:32:01.693Z,23.5
2019-05-17T22:33:03.585Z,22.5
2019-05-17T22:34:05.458Z,23.1
2019-05-17T22:35:07.332Z,23.6
2019-05-17T22:36:08.910Z,23.4
2019-05-17T22:37:10.800Z,23.7
2019-05-17T22:38:12.670Z,22.9
2019-05-17T22:39:14.546Z,23.7
2019-05-17T22:40:16.417Z,23.5
2019-05-17T22:41:18.286Z,22.7
2019-05-17T22:42:20.198Z,23.4
2019-05-17T22:43:21.556Z,24.3
2019-05-17T22:44:22.865Z,23.2
2019-05-17T22:45:24.451Z,22.8
2019-05-17T22:46:37.248Z,23.7
2019-05-17T22:47:39.117Z,23.7
2019-05-17T22:48:41.000Z,24.4
2019-05-17T22:49:42.860Z,23.9
2019-05-17T22:50:44.737Z,24.4
2019-05-17T22:51:46.602Z,25.3
2019-05-17T22:52:48.203Z,25
2019-05-17T22:53:50.151Z,24.7
2019-05-17T22:54:52.055Z,24.4
2019-05-17T22:55:53.656Z,25.5
2019-05-17T22:56:55.520Z,24.5
2019-05-17T22:57:57.386Z,25.3
2019-05-17T22:58:59.257Z,25.4
2019-05-17T23:00:01.125Z,25.4
2019-05-17T23:01:02.995Z,25.5
2019-05-17T23:02:04.869Z,26.5
2019-05-17T23:03:06.438Z,25.4
2019-05-17T23:04:08.316Z,25.3
2019-05-17T23:05:10.185Z,25.5
2019-05-17T23:06:12.057Z,25.4
2019-05-17T23:07:13.924Z,26.2
2019-05-17T23:08:15.811Z,25.7
2019-05-17T23:09:17.376Z,25.1
2019-05-17T23:10:19.256Z,25.8
2019-05-17T23:11:21.129Z,25.7
2019-05-17T23:12:22.996Z,26.5
2019-05-17T23:13:24.865Z,25.7
2019-05-17T23:14:26.730Z,26.8
2019-05-17T23:15:28.601Z,25.6
2019-05-17T23:16:30.573Z,25.9
2019-05-17T23:17:32.441Z,25.5
2019-05-17T23:18:34.318Z,25.4
2019-05-17T23:19:36.179Z,26
2019-05-17T23:20:38.055Z,26.6
2019-05-17T23:21:39.929Z,26.8
2019-05-17T23:22:41.877Z,26.5
2019-05-17T23:23:43.755Z,26
2019-05-17T23:24:45.718Z,25.8
2019-05-17T23:25:47.622Z,25.7
2019-05-17T23:26:49.490Z,24.9
2019-05-17T23:27:50.792Z,25.5
2019-05-17T23:28:52.662Z,26.2
2019-05-17T23:29:54.532Z,25.5
2019-05-17T23:30:56.397Z,25.4
2019-05-17T23:31:58.266Z,25.8
2019-05-17T23:33:00.141Z,26.4
2019-05-17T23:34:02.005Z,25.5
2019-05-17T23:35:03.875Z,25.7
2019-05-17T23:36:05.748Z,26.4
2019-05-17T23:37:07.331Z,26.7
2019-05-17T23:38:09.243Z,26.9
2019-05-17T23:39:11.148Z,27.8
2019-05-17T23:40:13.015Z,26.6
2019-05-17T23:41:14.923Z,26.8
2019-05-17T23:42:16.790Z,26.3
2019-05-17T23:43:18.660Z,27.1
2019-05-17T23:44:20.556Z,27
2019-05-17T23:45:22.118Z,27
2019-05-17T23:46:23.989Z,28
2019-05-17T23:47:25.857Z,27.3
2019-05-17T23:48:27.725Z,27.4
2019-05-17T23:49:29.631Z,27.6
2019-05-17T23:50:31.526Z,27.6
2019-05-17T23:51:33.115Z,26.7
2019-05-17T23:52:34.980Z,27.7
2019-05-17T23:53:36.847Z,27.7
2019-05-17T23:54:38.159Z,28
2019-05-17T23:55:39.749Z,27.7
2019-05-17T23:56:41.623Z,27.9
2019-05-17T23:57:43.490Z,27.9
2019-05-17T23:58:45.357Z,27.8
2019-05-17T23:59:47.223Z,27.5
